Terminal Aerodrome Forecast
Issued by NWS

Home | Current Version | Previous Version | Text Only | Print | Product List | Glossary On
Versions: 1 2 3 4 5 6 7 8 9 10 11 12 13 14 15 16 17 18 19 20 21 22 23 24 25 26 27 28 29 30
000
FTUS41 KALY 300758 AAD
TAFPSF
TAF AMD
KPSF 300758Z 3008/0106 VRB03KT 5SM BR BKN080
      TEMPO 3008/3010 1/4SM FG VV001
     FM301300 18007KT P6SM FEW050 BKN090
     FM301900 18010KT P6SM VCSH SCT050 OVC080
     FM010300 16007KT 6SM BR VCSH BKN050 OVC080=

USA.gov is the U.S. government's official web portal to all federal, state and local government web resources and services.